TimeMST,TemperatureF,Dew PointF,Humidity,Sea Level PressureIn,VisibilityMPH,Wind Direction,Wind SpeedMPH,Gust SpeedMPH,PrecipitationIn,Events,Conditions,WindDirDegrees,DateUTC
12:53 AM,33.1,26.1,75,30.33,10.0,WNW,8.1,-,N/A,,Clear,290,2012-11-15 07:53:00
1:53 AM,32.0,25.0,75,30.34,10.0,WSW,9.2,-,N/A,,Clear,250,2012-11-15 08:53:00
2:53 AM,26.1,21.9,84,30.38,10.0,Calm,Calm,-,N/A,,Clear,0,2012-11-15 09:53:00
3:53 AM,25.0,21.0,85,30.38,10.0,Calm,Calm,-,N/A,,Clear,0,2012-11-15 10:53:00
4:53 AM,26.1,19.9,78,30.38,10.0,Calm,Calm,-,N/A,,Clear,0,2012-11-15 11:53:00
5:53 AM,23.0,18.0,81,30.40,10.0,SSW,5.8,-,N/A,,Clear,200,2012-11-15 12:53:00
6:53 AM,27.0,19.0,72,30.39,10.0,Calm,Calm,-,N/A,,Clear,0,2012-11-15 13:53:00
7:53 AM,27.0,19.9,75,30.40,10.0,Calm,Calm,-,N/A,,Clear,0,2012-11-15 14:53:00
8:53 AM,32.0,23.0,69,30.39,10.0,Calm,Calm,-,N/A,,Clear,0,2012-11-15 15:53:00
9:53 AM,37.0,25.0,62,30.36,10.0,Calm,Calm,-,N/A,,Clear,0,2012-11-15 16:53:00
10:53 AM,41.0,27.0,57,30.34,10.0,SSE,11.5,-,N/A,,Clear,150,2012-11-15 17:53:00
11:53 AM,42.1,27.0,55,30.30,10.0,SSE,8.1,-,N/A,,Clear,150,2012-11-15 18:53:00
12:53 PM,44.1,28.9,55,30.26,10.0,SSE,8.1,-,N/A,,Clear,160,2012-11-15 19:53:00
1:53 PM,45.0,30.0,56,30.25,10.0,South,5.8,-,N/A,,Clear,170,2012-11-15 20:53:00
2:53 PM,46.0,28.0,50,30.25,10.0,South,3.5,-,N/A,,Clear,190,2012-11-15 21:53:00
3:53 PM,45.0,28.0,52,30.24,10.0,Calm,Calm,-,N/A,,Clear,0,2012-11-15 22:53:00
4:53 PM,34.0,27.0,75,30.25,10.0,WSW,3.5,-,N/A,,Clear,250,2012-11-15 23:53:00
5:53 PM,30.9,25.0,79,30.28,10.0,Calm,Calm,-,N/A,,Clear,0,2012-11-16 00:53:00
6:53 PM,26.1,21.9,84,30.27,10.0,NW,3.5,-,N/A,,Clear,320,2012-11-16 01:53:00
7:53 PM,27.0,21.9,81,30.25,10.0,South,4.6,-,N/A,,Clear,190,2012-11-16 02:53:00
8:53 PM,24.1,19.0,81,30.23,10.0,Calm,Calm,-,N/A,,Clear,0,2012-11-16 03:53:00
9:53 PM,21.9,18.0,85,30.21,10.0,SSW,5.8,-,N/A,,Clear,200,2012-11-16 04:53:00
10:53 PM,21.0,17.1,85,30.19,10.0,SW,5.8,-,N/A,,Clear,230,2012-11-16 05:53:00
11:53 PM,21.9,17.1,82,30.17,10.0,Calm,Calm,-,N/A,,Clear,0,2012-11-16 06:53:00